Central Nebraska Regional Airport
KGRI : now visible

Airfield :











YOU CAN JOIN US ON...

 
LOGIN :

Register | Disclaimer

   EN    FR    IT 

 









Legend :    VFR   Marginal VFR   IFR   Intensive IFR   Very Intensive IFR
Visi :
Ceiling :
>= 8 km
>= 3000ft
5 to 8 km
1000 to 3000 ft
1500m to 5 km
500 to 1000 ft
800 to 1500m
200 to 500 ft
< 800m
< 200 ft
Symbols :   Thunderstorms  Fog  Heavy snow  Heavy precipitations  Wind > 20 kt






- Airport Elevation : 1847 ft
- IATA code : GRI


KGRI - Central Nebraska Regional

CURRENT METAR :
  • 271553Z 33014G24KT 10SM CLR 22/11 A3002 RMK AO2 SLP162 T02220111

EXPIRED METARs :
  • 271453Z 31010KT 10SM CLR 19/12 A3001 RMK AO2 SLP159 T01940117 53016
  • 271353Z 31009KT 10SM CLR 17/12 A2999 RMK AO2 SLP150 T01720117
  • 271253Z 30008KT 10SM CLR 14/11 A2997 RMK AO2 SLP145 T01390111
  • 271153Z 29005KT 10SM CLR 12/10 A2996 RMK AO2 SLP142 70004 T01170100 10139 20111 51017

TAF KGRI
Valid from the 27 at 12:00 until the 28 at 12:00 UTC


271137Z 2712/2812 31008KT P6SM FEW120
FM271500 32013G18KT P6SM FEW100
FM271900 30016G26KT P6SM FEW080 FEW250
FM280100 34009KT P6SM SKC
FM280500 VRB04KT P6SM SKC
KZMP FIR / North America



MET'MAP, your aeronautical weather chart ! - Copyright ORBIFLY December 2007 - Disclaimer

ORBIFLY MET'MAP TEAM :

Programming & Development : Alexandra Zaïnal
Original concept : Baudouin d'Aumeries
Technical & hardware support : Manuel Goepfert
Assistance : Marc-Olivier Méhu




SOURCES & CREDITS :

   NOAA       Earth
Advisory